Time;durP1;ratioP1;P1;durP2;ratioP2;P2;SDS_P1;SDS_P2;PMS_P1;PMS_P2;Temp;Humidity;BMP_temperature;BMP_pressure;BME280_temperature;BME280_humidity;BME280_pressure;Samples;Min_cycle;Max_cycle;Signal;HPM_P1;HPM_P2
2022/05/26 00:01:09;;;;;;;4.70;3.13;;;15.70;99.90;;;;;;5074992;28;20124;-69
2022/05/26 00:03:38;;;;;;;5.38;3.10;;;15.70;99.90;;;;;;5076126;28;20025;-69
2022/05/26 00:06:06;;;;;;;4.40;3.10;;;15.70;99.90;;;;;;5074850;28;20025;-69
2022/05/26 00:08:32;;;;;;;6.65;2.70;;;15.70;99.90;;;;;;5074865;28;20029;-69
2022/05/26 00:10:59;;;;;;;8.95;3.13;;;15.60;99.90;;;;;;5076017;28;20073;-69
2022/05/26 00:13:25;;;;;;;10.25;3.45;;;15.60;99.90;;;;;;5074810;28;20020;-69
2022/05/26 00:15:51;;;;;;;5.95;2.88;;;15.60;99.90;;;;;;5075941;28;20024;-68
2022/05/26 00:18:17;;;;;;;9.50;3.03;;;15.60;99.90;;;;;;5074646;28;20024;-69
2022/05/26 00:20:43;;;;;;;7.88;2.63;;;15.70;99.90;;;;;;5074621;28;20020;-69
2022/05/26 00:23:09;;;;;;;4.63;2.47;;;15.70;99.90;;;;;;5075866;28;20029;-69
2022/05/26 00:25:35;;;;;;;5.10;2.65;;;15.70;99.90;;;;;;5075786;28;20024;-70
2022/05/26 00:28:00;;;;;;;5.20;3.15;;;15.70;99.90;;;;;;5074444;28;20028;-69
2022/05/26 00:30:26;;;;;;;4.35;2.95;;;15.70;99.90;;;;;;5074504;28;20088;-69
2022/05/26 00:32:51;;;;;;;5.43;2.42;;;15.70;99.90;;;;;;5075184;28;20033;-69
2022/05/26 00:35:17;;;;;;;4.70;2.60;;;15.70;99.90;;;;;;5075635;28;20521;-68
2022/05/26 00:37:43;;;;;;;6.10;2.78;;;15.70;99.90;;;;;;5074389;28;20017;-68
2022/05/26 00:40:11;;;;;;;4.20;3.20;;;15.70;99.90;;;;;;5075446;28;20025;-69
2022/05/26 00:42:37;;;;;;;3.75;3.13;;;15.70;99.90;;;;;;5074405;28;20450;-69
2022/05/26 00:45:05;;;;;;;4.25;2.95;;;15.70;99.90;;;;;;5075486;28;20048;-69
2022/05/26 00:47:33;;;;;;;7.25;3.35;;;15.60;99.90;;;;;;5074103;28;20029;-69
2022/05/26 00:50:16;;;;;;;5.15;2.97;;;15.70;99.90;;;;;;5074132;28;20032;-69
2022/05/26 00:52:47;;;;;;;5.93;3.63;;;15.60;99.90;;;;;;5075226;28;20021;-68
2022/05/26 00:55:18;;;;;;;5.53;3.97;;;15.60;99.90;;;;;;5057298;28;20071;-69
2022/05/26 00:57:49;;;;;;;4.30;3.38;;;15.60;99.90;;;;;;5073874;28;20041;-68
2022/05/26 01:00:18;;;;;;;5.18;4.60;;;15.60;99.90;;;;;;5074783;28;20093;-69
2022/05/26 01:02:56;;;;;;;11.70;5.18;;;15.60;99.90;;;;;;5075095;28;20494;-69
2022/05/26 01:05:26;;;;;;;8.32;4.97;;;15.60;99.90;;;;;;5073931;28;20479;-68
2022/05/26 01:07:52;;;;;;;7.97;6.00;;;15.50;99.90;;;;;;5073842;28;20407;-68
2022/05/26 01:10:18;;;;;;;7.85;7.05;;;15.50;99.90;;;;;;5074949;28;20027;-68
2022/05/26 01:12:44;;;;;;;10.55;8.35;;;15.40;99.90;;;;;;5056974;28;20032;-68
2022/05/26 01:15:15;;;;;;;8.77;7.88;;;15.30;99.90;;;;;;5073653;28;20051;-69
2022/05/26 01:20:47;;;;;;;11.65;8.70;;;15.20;99.90;;;;;;5070603;28;20383;-68
2022/05/26 01:23:41;;;;;;;9.75;7.80;;;15.20;99.90;;;;;;5070519;28;20021;-68
2022/05/26 01:26:24;;;;;;;13.00;8.80;;;15.10;99.90;;;;;;5069232;28;20025;-68
2022/05/26 01:29:18;;;;;;;10.98;9.20;;;15.20;99.90;;;;;;5070404;28;20029;-67
2022/05/26 01:31:55;;;;;;;12.13;8.40;;;15.20;99.90;;;;;;5069098;28;20036;-68
2022/05/26 01:34:47;;;;;;;10.13;8.32;;;15.10;99.90;;;;;;5070204;28;20029;-68
2022/05/26 01:37:43;;;;;;;14.18;9.32;;;15.10;99.90;;;;;;5069011;28;20040;-68
2022/05/26 01:40:34;;;;;;;10.57;9.48;;;15.10;99.90;;;;;;5070005;28;20029;-68
2022/05/26 01:43:32;;;;;;;13.90;9.98;;;15.10;99.90;;;;;;5069987;28;20155;-68
2022/05/26 01:46:18;;;;;;;14.50;10.48;;;15.00;99.90;;;;;;5069198;28;20116;-68
2022/05/26 01:48:52;;;;;;;14.15;9.90;;;14.90;99.90;;;;;;5068842;28;20052;-67
2022/05/26 01:51:28;;;;;;;13.45;10.88;;;14.90;99.90;;;;;;5068730;28;20390;-67
2022/05/26 01:54:17;;;;;;;12.25;9.90;;;14.90;99.90;;;;;;5069884;28;20023;-68
2022/05/26 01:57:09;;;;;;;12.43;10.50;;;14.80;99.90;;;;;;5068826;28;20120;-68
2022/05/26 01:59:45;;;;;;;14.60;10.25;;;14.80;99.90;;;;;;5068473;28;20025;-68
2022/05/26 02:02:18;;;;;;;11.85;10.40;;;14.80;99.90;;;;;;5069762;28;20021;-69
2022/05/26 02:04:48;;;;;;;17.13;10.70;;;14.80;99.90;;;;;;5068570;28;20070;-68
2022/05/26 02:07:27;;;;;;;13.55;9.52;;;14.80;99.90;;;;;;5069677;28;20078;-68
2022/05/26 02:09:54;;;;;;;11.10;8.75;;;14.80;99.90;;;;;;5068315;28;20028;-68
2022/05/26 02:12:29;;;;;;;8.70;7.80;;;14.80;99.90;;;;;;5069437;28;20024;-68
2022/05/26 02:15:01;;;;;;;11.13;7.45;;;14.80;99.90;;;;;;5068458;28;20039;-68
2022/05/26 02:17:31;;;;;;;9.23;6.97;;;14.80;99.90;;;;;;5069376;28;20025;-68
2022/05/26 02:20:06;;;;;;;11.20;7.25;;;14.80;99.90;;;;;;5067911;28;20053;-68
2022/05/26 02:22:39;;;;;;;8.05;6.85;;;14.80;99.90;;;;;;5067997;28;20029;-68
2022/05/26 02:25:07;;;;;;;;;;;14.80;99.90;;;;;;5051858;28;20078;-67
2022/05/26 02:27:34;;;;;;;9.25;6.25;;;14.80;99.90;;;;;;5069201;28;19904;-67
2022/05/26 02:30:01;;;;;;;10.10;6.15;;;14.90;99.90;;;;;;5066502;28;20494;-67
2022/05/26 02:32:46;;;;;;;5.72;5.00;;;14.90;99.90;;;;;;5055845;28;20025;-67
2022/05/26 02:35:20;;;;;;;6.75;5.43;;;14.90;99.90;;;;;;5054769;28;20056;-68
2022/05/26 02:37:49;;;;;;;5.95;5.20;;;14.90;99.90;;;;;;5055904;28;20104;-68
2022/05/26 02:40:15;;;;;;;5.80;4.85;;;15.00;99.90;;;;;;5054428;28;20125;-68
2022/05/26 02:42:47;;;;;;;9.98;5.45;;;15.00;99.90;;;;;;5055688;28;20017;-68
2022/05/26 02:45:14;;;;;;;7.38;5.60;;;15.00;99.90;;;;;;5054453;28;20028;-68
2022/05/26 02:48:00;;;;;;;9.23;5.60;;;15.00;99.90;;;;;;5055722;28;20100;-68
2022/05/26 02:50:53;;;;;;;8.13;5.30;;;15.10;99.90;;;;;;5054414;28;20032;-68
2022/05/26 02:53:30;;;;;;;9.27;5.45;;;15.10;99.90;;;;;;5054516;28;20025;-68
2022/05/26 02:56:15;;;;;;;10.60;7.22;;;15.00;99.90;;;;;;5054350;28;20518;-68
2022/05/26 02:58:57;;;;;;;13.60;7.05;;;15.00;99.90;;;;;;5055380;28;20067;-68
2022/05/26 03:01:30;;;;;;;6.93;6.20;;;15.00;99.90;;;;;;5055393;28;20028;-69
2022/05/26 03:04:10;;;;;;;7.25;6.50;;;15.00;99.90;;;;;;5054064;28;20101;-68
2022/05/26 03:06:50;;;;;;;10.75;6.63;;;15.00;99.90;;;;;;5055287;28;20467;-68
2022/05/26 03:09:17;;;;;;;10.38;6.97;;;14.90;99.90;;;;;;5053980;28;20036;-67
2022/05/26 03:11:47;;;;;;;9.43;7.50;;;14.90;99.90;;;;;;5055119;28;20550;-67
2022/05/26 03:14:14;;;;;;;9.15;7.75;;;14.80;99.90;;;;;;5053931;28;20107;-68
2022/05/26 03:16:41;;;;;;;15.38;8.02;;;14.80;99.90;;;;;;5055083;28;20047;-68
2022/05/26 03:19:06;;;;;;;10.45;8.73;;;14.70;99.90;;;;;;5054796;28;20045;-67
2022/05/26 03:21:32;;;;;;;12.85;9.00;;;14.60;99.90;;;;;;5054969;28;20074;-67
2022/05/26 03:23:57;;;;;;;13.57;9.57;;;14.40;99.90;;;;;;5055011;28;20476;-67
2022/05/26 03:26:23;;;;;;;13.35;10.35;;;14.30;99.90;;;;;;5053690;28;20442;-67
2022/05/26 03:28:48;;;;;;;11.60;9.55;;;14.20;99.90;;;;;;5054878;28;20032;-67
2022/05/26 03:31:14;;;;;;;13.57;10.65;;;14.20;99.90;;;;;;5053696;28;20036;-67
2022/05/26 03:41:56;;;;;;;14.95;10.73;;;14.10;99.90;;;;;;5053780;28;20022;-67
2022/05/26 03:44:24;;;;;;;13.43;10.80;;;14.10;99.90;;;;;;5036876;28;20025;-67
2022/05/26 03:46:50;;;;;;;14.52;10.90;;;14.10;99.90;;;;;;5054677;28;20013;-68
2022/05/26 03:49:16;;;;;;;19.00;13.40;;;14.00;99.90;;;;;;5036711;28;20119;-67
2022/05/26 03:51:41;;;;;;;15.77;13.32;;;14.00;99.90;;;;;;5054518;28;20491;-67
2022/05/26 03:54:07;;;;;;;20.88;12.60;;;14.00;99.90;;;;;;5054520;28;20099;-68
2022/05/26 03:56:32;;;;;;;19.88;13.05;;;13.90;99.90;;;;;;5054382;28;20029;-68
2022/05/26 03:58:58;;;;;;;19.38;14.10;;;13.80;99.90;;;;;;5054234;28;20059;-67
2022/05/26 04:01:23;;;;;;;18.77;14.25;;;13.70;99.90;;;;;;5052988;28;20017;-68
2022/05/26 04:03:49;;;;;;;21.13;15.02;;;13.60;99.90;;;;;;5053087;28;20033;-67
2022/05/26 04:06:16;;;;;;;24.40;15.63;;;13.60;99.90;;;;;;5054153;28;20036;-68
2022/05/26 04:08:41;;;;;;;19.00;15.05;;;13.60;99.90;;;;;;5053059;28;20075;-68
2022/05/26 04:11:07;;;;;;;19.40;14.93;;;13.60;99.90;;;;;;5054089;28;20024;-67
2022/05/26 04:13:32;;;;;;;19.48;15.77;;;13.50;99.90;;;;;;5053978;28;20095;-67
2022/05/26 04:15:58;;;;;;;22.13;15.98;;;13.60;99.90;;;;;;5053963;28;20067;-67
2022/05/26 04:18:24;;;;;;;18.85;15.50;;;13.60;99.90;;;;;;5053702;28;20501;-68
2022/05/26 04:20:49;;;;;;;24.38;16.08;;;13.60;99.90;;;;;;5052461;28;20021;-67
2022/05/26 04:23:15;;;;;;;21.17;16.27;;;13.60;99.90;;;;;;5053728;28;20139;-68
2022/05/26 04:25:40;;;;;;;23.20;16.55;;;13.60;99.90;;;;;;5053727;28;20108;-68
2022/05/26 04:28:06;;;;;;;24.25;17.17;;;13.60;99.90;;;;;;5053687;28;20136;-68
2022/05/26 04:30:32;;;;;;;24.15;16.75;;;13.60;99.90;;;;;;5052398;28;20033;-67
2022/05/26 04:32:57;;;;;;;22.40;17.25;;;13.70;99.90;;;;;;5052394;28;20110;-67
2022/05/26 04:35:24;;;;;;;21.88;16.65;;;13.80;99.90;;;;;;5052338;28;20028;-67
2022/05/26 04:37:50;;;;;;;30.23;17.27;;;13.80;99.90;;;;;;5053476;28;20048;-67
2022/05/26 04:40:15;;;;;;;24.90;16.58;;;13.80;99.90;;;;;;5035424;28;20492;-67
2022/05/26 04:42:41;;;;;;;22.58;16.25;;;13.90;99.90;;;;;;5052169;28;20025;-67
2022/05/26 04:45:08;;;;;;;24.23;15.43;;;13.90;99.90;;;;;;5053331;28;20037;-68
2022/05/26 04:47:34;;;;;;;26.60;15.75;;;14.00;99.90;;;;;;5051908;28;20434;-67
2022/05/26 04:50:00;;;;;;;19.33;14.70;;;14.10;99.90;;;;;;5053236;28;20033;-67
2022/05/26 04:52:25;;;;;;;24.00;14.57;;;14.10;99.90;;;;;;5052101;28;20025;-68
2022/05/26 04:54:53;;;;;;;24.15;15.48;;;14.10;99.90;;;;;;5051812;28;20029;-67
2022/05/26 04:57:21;;;;;;;22.55;15.15;;;14.20;99.90;;;;;;5051940;28;20483;-68
2022/05/26 04:59:48;;;;;;;22.40;15.32;;;14.30;99.90;;;;;;5053224;28;20035;-68
2022/05/26 05:02:16;;;;;;;19.85;15.55;;;14.30;99.90;;;;;;5052002;28;20518;-68
2022/05/26 05:04:44;;;;;;;20.08;15.77;;;14.30;99.90;;;;;;5035496;28;20025;-67
2022/05/26 05:07:10;;;;;;;22.60;15.32;;;14.30;99.90;;;;;;5052117;28;20020;-67
2022/05/26 05:09:38;;;;;;;19.88;14.80;;;14.30;99.90;;;;;;5053201;28;20017;-67
2022/05/26 05:12:05;;;;;;;23.80;15.10;;;14.30;99.90;;;;;;5053020;28;20025;-67
2022/05/26 05:14:36;;;;;;;24.85;16.58;;;14.30;99.90;;;;;;5052947;28;20092;-67
2022/05/26 05:17:03;;;;;;;20.90;14.70;;;14.40;99.90;;;;;;5052944;28;20025;-67
2022/05/26 05:19:29;;;;;;;22.83;13.73;;;14.40;99.90;;;;;;5052723;28;20119;-67
2022/05/26 05:22:01;;;;;;;23.00;14.65;;;14.50;99.90;;;;;;5051815;28;20056;-67
2022/05/26 05:24:34;;;;;;;21.67;14.43;;;14.50;99.90;;;;;;5051616;28;20036;-67
2022/05/26 05:27:06;;;;;;;20.63;15.13;;;14.50;99.90;;;;;;5052965;28;20028;-67
2022/05/26 05:29:36;;;;;;;23.25;15.68;;;14.60;99.90;;;;;;5052099;28;20029;-67
2022/05/26 05:32:13;;;;;;;27.65;16.63;;;14.70;99.90;;;;;;5052707;28;20529;-67
2022/05/26 05:34:45;;;;;;;23.98;16.00;;;14.70;99.90;;;;;;5052771;28;20558;-67
2022/05/26 05:37:10;;;;;;;23.08;15.32;;;14.70;99.90;;;;;;5034796;28;20035;-68
2022/05/26 05:39:36;;;;;;;20.80;14.50;;;14.80;99.90;;;;;;5051597;28;20113;-67
2022/05/26 05:42:05;;;;;;;28.63;17.00;;;14.90;99.90;;;;;;5052606;28;20383;-67
2022/05/26 05:44:31;;;;;;;26.15;16.60;;;14.90;99.90;;;;;;5052622;28;20074;-67
2022/05/26 05:46:58;;;;;;;27.77;18.13;;;14.90;99.90;;;;;;5052632;28;20103;-67
2022/05/26 05:49:27;;;;;;;23.73;18.08;;;15.00;99.90;;;;;;5051263;28;20032;-68
2022/05/26 05:51:53;;;;;;;24.98;17.70;;;15.10;99.90;;;;;;5051338;28;20028;-68
2022/05/26 05:54:19;;;;;;;30.85;19.98;;;15.00;99.90;;;;;;5051421;28;20021;-67
2022/05/26 05:56:46;;;;;;;29.15;20.02;;;15.00;99.90;;;;;;5051457;28;20021;-67
2022/05/26 05:59:12;;;;;;;32.35;21.17;;;15.00;99.90;;;;;;5051286;28;20074;-67
2022/05/26 06:01:38;;;;;;;30.55;22.00;;;14.90;99.90;;;;;;5034743;28;20387;-68
2022/05/26 06:04:04;;;;;;;32.80;21.00;;;15.00;99.90;;;;;;5051326;28;20093;-67
2022/05/26 06:06:39;;;;;;;30.02;22.08;;;15.00;99.90;;;;;;5036959;28;20017;-67
2022/05/26 06:09:07;;;;;;;31.80;23.30;;;15.10;99.90;;;;;;5056329;28;20098;-67
2022/05/26 06:11:33;;;;;;;30.45;21.15;;;15.20;99.90;;;;;;5054868;28;20506;-68
2022/05/26 06:13:59;;;;;;;28.83;21.95;;;15.20;99.90;;;;;;5054939;28;20443;-67
2022/05/26 06:16:25;;;;;;;34.45;20.63;;;15.40;99.90;;;;;;5054883;28;20562;-67
2022/05/26 06:18:51;;;;;;;31.98;22.13;;;15.60;99.90;;;;;;5054419;28;20139;-67
2022/05/26 06:21:17;;;;;;;30.52;20.67;;;15.70;99.90;;;;;;5055831;28;20024;-67
2022/05/26 06:23:43;;;;;;;30.88;22.55;;;15.70;99.90;;;;;;5054779;28;20021;-67
2022/05/26 06:26:08;;;;;;;33.10;21.88;;;15.60;99.90;;;;;;5054668;28;20028;-67
2022/05/26 06:31:22;;;;;;;31.77;23.33;;;15.50;99.90;;;;;;5055661;28;20391;-68
2022/05/26 06:39:20;;;;;;;37.33;23.52;;;15.70;99.90;;;;;;5055388;28;20029;-67
2022/05/26 06:42:17;;;;;;;33.85;23.17;;;15.70;99.90;;;;;;5054431;28;20493;-68
2022/05/26 06:44:32;;;;;;;35.08;22.30;;;15.90;99.90;;;;;;5054564;28;20025;-67
2022/05/26 06:46:57;;;;;;;32.15;22.33;;;15.90;99.90;;;;;;5055690;28;20028;-68
2022/05/26 06:49:23;;;;;;;30.92;22.08;;;15.90;99.90;;;;;;5055609;28;20033;-68
2022/05/26 06:51:48;;;;;;;29.25;21.15;;;15.90;99.90;;;;;;5037484;28;20475;-69
2022/05/26 06:54:14;;;;;;;34.10;21.40;;;15.90;99.90;;;;;;5055432;28;20032;-67
2022/05/26 06:56:39;;;;;;;28.25;20.63;;;15.80;99.90;;;;;;5055416;28;20403;-68
2022/05/26 06:59:05;;;;;;;32.15;21.05;;;16.00;99.90;;;;;;5053926;28;20082;-68
2022/05/26 07:01:31;;;;;;;27.50;19.38;;;16.30;99.90;;;;;;5055219;28;20472;-68
2022/05/26 07:03:56;;;;;;;35.90;19.38;;;16.50;99.90;;;;;;5053869;28;20021;-68
2022/05/26 07:06:25;;;;;;;27.95;19.33;;;16.40;99.90;;;;;;5055124;28;20021;-68
2022/05/26 07:08:51;;;;;;;25.45;18.42;;;16.70;99.90;;;;;;5055100;28;20475;-68
2022/05/26 07:11:17;;;;;;;28.25;18.42;;;17.00;99.90;;;;;;5055056;28;20105;-68
2022/05/26 07:13:43;;;;;;;28.40;18.23;;;17.10;99.90;;;;;;5053747;28;20029;-69
2022/05/26 07:16:10;;;;;;;29.27;19.08;;;17.50;99.90;;;;;;5053915;28;20041;-68
2022/05/26 07:18:36;;;;;;;25.65;19.05;;;17.00;99.90;;;;;;5053804;28;20052;-68
2022/05/26 07:21:03;;;;;;;27.33;19.83;;;16.80;99.90;;;;;;5055067;28;20028;-68
2022/05/26 07:23:29;;;;;;;30.42;20.75;;;16.50;99.90;;;;;;5054996;28;20017;-68
2022/05/26 07:25:56;;;;;;;26.48;18.65;;;16.80;99.90;;;;;;5054921;28;20052;-69
2022/05/26 07:28:23;;;;;;;31.98;20.23;;;17.80;99.90;;;;;;5054982;28;20078;-68
2022/05/26 07:30:52;;;;;;;28.02;19.73;;;17.30;99.90;;;;;;5054951;28;20017;-68
2022/05/26 07:33:18;;;;;;;28.00;20.70;;;16.80;99.90;;;;;;5054801;28;20028;-68
2022/05/26 07:35:44;;;;;;;31.27;21.30;;;16.50;99.90;;;;;;5054807;28;20025;-68
2022/05/26 07:41:27;;;;;;;31.88;20.67;;;16.00;99.90;;;;;;5053398;28;20048;-68
2022/05/26 07:43:42;;;;;;;31.02;19.58;;;16.00;99.90;;;;;;5054300;28;20021;-68
2022/05/26 07:46:09;;;;;;;25.85;17.17;;;16.30;99.90;;;;;;5054436;28;20111;-68
2022/05/26 07:48:34;;;;;;;25.85;17.20;;;17.60;99.90;;;;;;5054324;28;20024;-69
2022/05/26 07:51:00;;;;;;;23.25;15.65;;;18.20;99.90;;;;;;5054258;28;20475;-69
2022/05/26 07:53:25;;;;;;;24.30;15.00;;;18.40;99.90;;;;;;5054192;28;20036;-69
2022/05/26 07:55:51;;;;;;;24.63;14.60;;;18.30;99.90;;;;;;5053011;28;20029;-68
2022/05/26 07:58:16;;;;;;;22.77;14.68;;;18.20;99.90;;;;;;5054132;28;20070;-69
2022/05/26 08:00:42;;;;;;;22.00;14.82;;;18.10;99.90;;;;;;5053092;28;20395;-69
2022/05/26 08:03:08;;;;;;;26.30;14.73;;;18.20;99.90;;;;;;5054290;28;20059;-68
2022/05/26 08:05:34;;;;;;;22.90;15.75;;;18.00;99.90;;;;;;5054121;28;20021;-68
2022/05/26 08:08:00;;;;;;;22.35;16.00;;;17.80;99.90;;;;;;5052833;28;20029;-69
2022/05/26 08:10:25;;;;;;;20.63;15.35;;;17.50;99.90;;;;;;5052928;28;20025;-69
2022/05/26 08:12:51;;;;;;;29.90;15.98;;;17.50;99.90;;;;;;5052765;28;20032;-69
2022/05/26 08:15:17;;;;;;;23.92;16.33;;;17.60;99.90;;;;;;5052864;28;20403;-69
2022/05/26 08:17:43;;;;;;;26.02;15.25;;;17.90;99.90;;;;;;5052851;28;20032;-69
2022/05/26 08:20:10;;;;;;;25.42;15.60;;;17.90;99.90;;;;;;5053642;28;20411;-68
2022/05/26 08:22:35;;;;;;;19.95;14.40;;;17.80;99.90;;;;;;5053659;28;20017;-68
2022/05/26 08:25:01;;;;;;;25.67;14.15;;;18.10;99.90;;;;;;5052459;28;20035;-68
2022/05/26 08:27:27;;;;;;;22.60;15.75;;;18.40;99.90;;;;;;5053773;28;20028;-68
2022/05/26 08:29:54;;;;;;;17.98;14.30;;;18.10;99.90;;;;;;5053277;28;20028;-69
2022/05/26 08:32:21;;;;;;;23.15;15.70;;;17.70;99.90;;;;;;5053723;28;20529;-69
2022/05/26 08:34:47;;;;;;;22.85;15.57;;;17.40;99.90;;;;;;5053694;28;20100;-70
2022/05/26 08:37:19;;;;;;;26.63;15.00;;;17.50;99.90;;;;;;5053637;28;20112;-68
2022/05/26 08:39:46;;;;;;;25.13;16.52;;;17.70;99.90;;;;;;5035903;28;20502;-68
2022/05/26 08:42:18;;;;;;;22.88;15.07;;;17.60;99.90;;;;;;5052374;28;20025;-68
2022/05/26 08:44:43;;;;;;;21.55;14.68;;;17.80;99.90;;;;;;5052640;28;20070;-69
2022/05/26 08:47:21;;;;;;;18.70;13.35;;;17.90;99.90;;;;;;5053545;28;20430;-69
2022/05/26 08:52:34;;;;;;;20.90;13.88;;;17.70;99.90;;;;;;5111146;27;20380;-68
2022/05/26 08:55:06;;;;;;;22.50;13.10;;;18.10;99.90;;;;;;5109839;28;20035;-69
2022/05/26 08:57:57;;;;;;;19.50;13.50;;;18.30;99.90;;;;;;5110941;28;20115;-69
2022/05/26 09:00:25;;;;;;;22.30;13.60;;;18.50;99.90;;;;;;5109935;28;20510;-68
2022/05/26 09:02:56;;;;;;;16.80;11.68;;;18.40;99.90;;;;;;5110949;28;20024;-69
2022/05/26 09:05:22;;;;;;;18.90;10.77;;;18.10;99.90;;;;;;5110887;28;20023;-70
2022/05/26 09:13:49;;;;;;;20.27;12.32;;;18.00;99.90;;;;;;5110558;28;20034;-68
2022/05/26 09:16:15;;;;;;;14.65;10.80;;;18.00;99.90;;;;;;5110661;28;20107;-69
2022/05/26 09:18:41;;;;;;;23.25;11.30;;;17.90;99.90;;;;;;5110664;28;20024;-68
2022/05/26 09:21:24;;;;;;;18.48;11.27;;;18.10;99.90;;;;;;5109278;28;20080;-69
2022/05/26 09:23:50;;;;;;;;;;;18.80;99.90;;;;;;5110979;28;20493;-69
2022/05/26 09:26:19;;;;;;;15.65;10.68;;;18.80;99.90;;;;;;5109093;28;19915;-70
2022/05/26 09:28:49;;;;;;;17.02;11.05;;;19.40;99.90;;;;;;5109123;28;20020;-70
2022/05/26 09:31:33;;;;;;;20.58;12.02;;;19.40;99.90;;;;;;5110389;28;20028;-69
2022/05/26 09:34:18;;;;;;;18.63;11.63;;;19.00;99.90;;;;;;5109195;28;20024;-69
2022/05/26 09:36:56;;;;;;;16.88;11.95;;;19.00;99.90;;;;;;5110390;28;20106;-68
2022/05/26 09:39:30;;;;;;;19.65;12.27;;;18.90;99.90;;;;;;5110270;28;20051;-69
2022/05/26 09:41:58;;;;;;;20.50;12.40;;;18.50;99.90;;;;;;5092774;28;20027;-70
2022/05/26 09:44:35;;;;;;;18.52;13.68;;;19.00;99.90;;;;;;5110193;28;20023;-70
2022/05/26 09:47:04;;;;;;;20.83;13.10;;;19.10;99.90;;;;;;5108764;28;20028;-69
2022/05/26 09:49:37;;;;;;;18.92;12.45;;;19.40;99.90;;;;;;5110037;28;20028;-68
2022/05/26 09:52:10;;;;;;;;;;;20.20;99.90;;;;;;5108765;28;20105;-69
2022/05/26 09:54:36;;;;;;;19.20;13.23;;;20.60;99.90;;;;;;5109879;28;19908;-69
2022/05/26 09:57:13;;;;;;;25.75;14.40;;;20.20;99.90;;;;;;5109931;28;20479;-69
2022/05/26 09:59:40;;;;;;;19.45;14.75;;;20.70;99.90;;;;;;5110015;28;20042;-69
2022/05/26 10:02:15;;;;;;;22.20;15.52;;;20.40;99.90;;;;;;5105792;28;20051;-69
2022/05/26 10:05:03;;;;;;;23.55;13.82;;;19.80;99.90;;;;;;5094966;28;20066;-69
2022/05/26 10:07:45;;;;;;;20.27;12.88;;;19.20;99.90;;;;;;5096115;28;20024;-69
2022/05/26 10:10:32;;;;;;;19.52;12.25;;;20.00;99.90;;;;;;5095987;28;20044;-69
2022/05/26 10:13:38;;;;;;;18.88;13.38;;;19.90;99.90;;;;;;5096036;28;20074;-69
2022/05/26 10:16:12;;;;;;;19.35;14.85;;;19.50;99.90;;;;;;5095775;28;20032;-69
2022/05/26 10:19:17;;;;;;;21.38;16.50;;;19.60;99.90;;;;;;5094740;28;20550;-68
2022/05/26 10:24:59;;;;;;;24.33;17.58;;;19.20;99.90;;;;;;5070510;28;20410;-69
2022/05/26 10:27:43;;;;;;;23.67;15.93;;;19.60;99.90;;;;;;5086088;28;20032;-69
2022/05/26 10:30:18;;;;;;;;;;;20.20;99.90;;;;;;5069759;28;20028;-69
2022/05/26 10:33:24;;;;;;;13.15;9.73;;;21.20;99.90;;;;;;5070501;28;20359;-70
2022/05/26 10:36:29;;;;;;;13.23;8.15;;;21.90;99.90;;;;;;5070208;28;20079;-70
2022/05/26 10:39:08;;;;;;;12.95;6.57;;;22.00;99.90;;;;;;5070103;28;20032;-69
2022/05/26 10:41:43;;;;;;;11.75;9.32;;;21.90;99.90;;;;;;5070218;28;20047;-69
2022/05/26 10:44:20;;;;;;;15.10;9.23;;;21.50;99.90;;;;;;5070151;28;20028;-69
2022/05/26 10:46:56;;;;;;;16.63;8.77;;;20.80;99.90;;;;;;5070043;28;20021;-69
2022/05/26 10:49:31;;;;;;;14.43;8.57;;;19.70;99.90;;;;;;5068920;28;20032;-68
2022/05/26 10:52:07;;;;;;;11.50;7.32;;;19.30;99.90;;;;;;5068744;28;20063;-69
2022/05/26 10:55:07;;;;;;;10.75;7.50;;;19.00;99.90;;;;;;5068560;28;20020;-68
2022/05/26 10:57:57;;;;;;;15.55;9.32;;;18.80;99.90;;;;;;5069873;28;20372;-69
2022/05/26 11:00:27;;;;;;;14.82;9.43;;;18.80;99.90;;;;;;5068732;28;20028;-69
2022/05/26 11:03:02;;;;;;;13.55;9.65;;;18.60;99.90;;;;;;5068502;28;20390;-69
2022/05/26 11:05:40;;;;;;;10.60;7.57;;;19.20;99.90;;;;;;5069751;28;20021;-69
2022/05/26 11:08:32;;;;;;;9.88;8.10;;;19.70;99.90;;;;;;5069679;28;20025;-70
2022/05/26 11:11:21;;;;;;;12.65;8.32;;;19.80;99.90;;;;;;5069630;28;20428;-70
2022/05/26 11:19:42;;;;;;;13.93;8.88;;;18.80;99.90;;;;;;5110871;28;20020;-69
2022/05/26 11:22:09;;;;;;;13.88;7.47;;;18.70;99.90;;;;;;5110984;28;20028;-69
2022/05/26 11:24:35;;;;;;;8.88;6.50;;;18.60;99.90;;;;;;5110930;28;20028;-69
2022/05/26 11:27:11;;;;;;;14.05;7.40;;;18.70;99.90;;;;;;5109698;28;20119;-70
2022/05/26 11:29:44;;;;;;;10.23;6.72;;;18.60;99.90;;;;;;5109597;28;20032;-70
2022/05/26 11:36:07;;;;;;;10.23;6.72;;;18.70;99.90;;;;;;5111092;27;20129;-70
2022/05/26 11:37:39;;;;;;;10.00;6.40;;;18.50;99.90;;;;;;5109873;28;20034;-70
2022/05/26 11:40:08;;;;;;;10.95;7.32;;;18.50;99.90;;;;;;5109736;28;20028;-70
2022/05/26 11:42:50;;;;;;;14.02;8.93;;;18.30;99.90;;;;;;5109668;28;20020;-69
2022/05/26 11:45:21;;;;;;;14.23;8.68;;;18.30;99.90;;;;;;5110884;28;20012;-70
2022/05/26 11:47:49;;;;;;;14.48;9.40;;;18.20;99.90;;;;;;5109727;28;20020;-70
2022/05/26 11:50:45;;;;;;;18.00;10.02;;;18.20;99.90;;;;;;5110846;28;20107;-70
2022/05/26 11:53:14;;;;;;;14.40;9.88;;;18.20;99.90;;;;;;5109628;28;20082;-69
2022/05/26 11:55:52;;;;;;;16.88;9.90;;;18.30;99.90;;;;;;5109513;28;20020;-70
2022/05/26 11:58:42;;;;;;;13.43;8.82;;;18.50;99.90;;;;;;5109530;28;20546;-69
2022/05/26 12:01:29;;;;;;;13.25;9.82;;;18.90;99.90;;;;;;5109330;28;20143;-70
2022/05/26 12:06:51;;;;;;;13.80;8.93;;;19.00;99.90;;;;;;5111265;27;20104;-68
2022/05/26 12:09:28;;;;;;;17.23;9.68;;;19.40;99.90;;;;;;5111085;28;20036;-68
2022/05/26 12:12:01;;;;;;;15.20;9.57;;;19.10;99.90;;;;;;5109807;28;20036;-69
2022/05/26 12:14:36;;;;;;;14.80;8.97;;;19.00;99.90;;;;;;5111030;28;20027;-68
2022/05/26 12:17:33;;;;;;;14.23;8.90;;;19.00;99.90;;;;;;5110867;28;20024;-68
2022/05/26 12:20:04;;;;;;;16.83;8.75;;;19.00;99.90;;;;;;5110741;28;20418;-69
2022/05/26 12:22:36;;;;;;;15.63;8.32;;;19.10;99.90;;;;;;5110841;28;20051;-69
2022/05/26 12:25:26;;;;;;;14.32;8.57;;;19.40;99.90;;;;;;5109521;28;20030;-68
2022/05/26 12:33:47;;;;;;;13.00;8.98;;;19.70;99.90;;;;;;5070541;28;20407;-70
2022/05/26 12:39:49;;;;;;;13.45;8.38;;;20.20;99.90;;;;;;5111180;27;20396;-71
2022/05/26 12:42:41;;;;;;;13.93;7.55;;;19.90;99.90;;;;;;5111116;28;20036;-70
2022/05/26 12:45:19;;;;;;;12.40;7.60;;;19.80;99.90;;;;;;5110836;28;20077;-69
2022/05/26 12:48:16;;;;;;;12.35;7.68;;;19.70;99.90;;;;;;5111024;28;20020;-69
2022/05/26 12:50:43;;;;;;;14.00;7.80;;;19.70;99.90;;;;;;5109794;28;20016;-70
2022/05/26 12:53:18;;;;;;;13.90;7.57;;;19.90;99.90;;;;;;5092495;28;20494;-69
2022/05/26 12:55:54;;;;;;;11.50;6.00;;;20.40;99.90;;;;;;5109492;28;20024;-69
2022/05/26 12:58:24;;;;;;;9.57;5.90;;;20.40;99.90;;;;;;5109490;28;20032;-70
2022/05/26 13:01:01;;;;;;;8.60;5.82;;;20.10;99.90;;;;;;5109525;28;20516;-69
2022/05/26 13:06:29;;;;;;;8.68;5.93;;;20.30;99.90;;;;;;5111489;27;20354;-70
2022/05/26 13:09:18;;;;;;;12.60;7.45;;;20.40;99.90;;;;;;5109712;28;20028;-70
2022/05/26 13:11:53;;;;;;;10.10;6.53;;;20.10;99.90;;;;;;5109757;28;20065;-70
2022/05/26 13:14:42;;;;;;;11.57;6.68;;;19.90;99.90;;;;;;5110996;28;20023;-69
2022/05/26 13:17:19;;;;;;;11.80;6.72;;;19.80;99.90;;;;;;5110147;28;20065;-70
2022/05/26 13:19:52;;;;;;;13.15;6.70;;;19.80;99.90;;;;;;5109687;28;20023;-70
2022/05/26 13:22:30;;;;;;;9.20;6.03;;;20.20;99.90;;;;;;5109805;28;20034;-69
2022/05/26 13:24:59;;;;;;;9.55;6.45;;;20.60;99.90;;;;;;5110718;28;20020;-69
2022/05/26 13:27:38;;;;;;;12.73;7.35;;;20.70;99.90;;;;;;5110758;28;20016;-70
2022/05/26 13:33:22;;;;;;;13.20;6.90;;;20.90;99.90;;;;;;5110440;28;20052;-69
2022/05/26 13:35:47;;;;;;;11.32;6.20;;;20.60;99.90;;;;;;5110372;28;20027;-70
2022/05/26 13:38:34;;;;;;;14.95;6.80;;;20.40;99.90;;;;;;5109244;28;20123;-69
2022/05/26 13:41:02;;;;;;;12.52;6.30;;;20.40;99.90;;;;;;5110383;28;20066;-69
2022/05/26 13:43:32;;;;;;;13.23;6.78;;;20.50;99.90;;;;;;5110416;28;20485;-69
2022/05/26 13:45:58;;;;;;;10.82;7.05;;;21.00;99.90;;;;;;5109175;28;20027;-70
2022/05/26 13:48:43;;;;;;;10.90;6.95;;;21.20;99.90;;;;;;5109114;28;20031;-70
2022/05/26 13:51:15;;;;;;;11.20;7.30;;;20.60;99.90;;;;;;5109002;28;20031;-69
2022/05/26 13:54:02;;;;;;;14.17;7.60;;;20.70;99.90;;;;;;5109073;28;20031;-69
2022/05/26 13:56:31;;;;;;;10.35;7.45;;;20.50;99.90;;;;;;5110032;28;20258;-69
2022/05/26 13:58:59;;;;;;;10.35;6.40;;;20.80;99.90;;;;;;5110079;28;20103;-69
2022/05/26 14:01:26;;;;;;;9.95;6.53;;;21.00;99.90;;;;;;5091838;28;20024;-70